Time;durP1;ratioP1;P1;durP2;ratioP2;P2;SDS_P1;SDS_P2;PMS_P1;PMS_P2;Temp;Humidity;BMP_temperature;BMP_pressure;BME280_temperature;BME280_humidity;BME280_pressure;Samples;Min_cycle;Max_cycle;Signal;HPM_P1;HPM_P2
2022/02/27 00:06:35;;;;;;;;;8.00;5.00;;;;;6.95;55.29;101915.53;5102766;27;45520;-83
2022/02/27 00:09:00;;;;;;;;;6.00;5.00;;;;;6.73;55.17;101889.38;5100937;27;45500;-80
2022/02/27 00:11:25;;;;;;;;;6.00;5.00;;;;;6.99;55.04;101926.69;5100528;27;45580;-81
2022/02/27 00:13:51;;;;;;;;;7.00;6.00;;;;;6.86;55.21;101907.16;5100105;27;45520;-80
2022/02/27 00:16:16;;;;;;;;;7.50;6.00;;;;;6.84;54.99;101912.44;5099493;27;46463;-84
2022/02/27 00:18:43;;;;;;;;;7.50;6.00;;;;;6.94;55.40;101926.00;5098569;27;46189;-80
2022/02/27 00:21:09;;;;;;;;;8.00;7.50;;;;;6.93;55.14;101932.97;5097365;27;45797;-78
2022/02/27 00:23:36;;;;;;;;;7.50;6.00;;;;;6.88;55.49;101923.59;5078284;27;45669;-80
2022/02/27 00:26:01;;;;;;;;;5.75;5.00;;;;;6.85;55.33;101921.13;5096954;27;46373;-84
2022/02/27 00:28:27;;;;;;;;;5.50;5.00;;;;;6.87;55.55;101924.50;5096300;27;45739;-80
2022/02/27 00:30:52;;;;;;;;;9.75;7.50;;;;;6.85;55.30;101929.78;5096662;27;45762;-81
2022/02/27 00:33:17;;;;;;;;;8.50;6.00;;;;;6.85;55.22;101935.00;5096647;27;45708;-82
2022/02/27 00:35:43;;;;;;;;;9.00;6.50;;;;;6.68;55.60;101904.31;5096442;27;46336;-79
2022/02/27 00:38:08;;;;;;;;;14.75;11.00;;;;;6.81;55.68;101938.59;5096661;27;46918;-78
2022/02/27 00:40:34;;;;;;;;;9.50;8.50;;;;;6.80;55.78;101918.66;5099437;27;45594;-81
2022/02/27 00:43:00;;;;;;;;;9.75;6.00;;;;;6.65;55.45;101898.34;5099287;27;45556;-77
2022/02/27 00:45:25;;;;;;;;;6.50;6.50;;;;;6.73;55.57;101910.22;5097680;27;45707;-78
2022/02/27 00:51:12;;;;;;;;;7.75;6.00;;;;;6.70;55.76;101919.88;5098941;27;45670;-79
2022/02/27 00:53:37;;;;;;;;;10.25;8.00;;;;;6.69;55.91;101926.81;5099785;27;45914;-78
2022/02/27 00:56:04;;;;;;;;;4.00;4.00;;;;;6.68;55.92;101929.50;5083499;27;46899;-77
2022/02/27 00:58:29;;;;;;;;;6.75;6.25;;;;;6.64;56.13;101923.53;5104527;27;46073;-81
2022/02/27 01:00:54;;;;;;;;;8.00;7.00;;;;;6.69;55.93;101933.81;5101630;27;45659;-78
2022/02/27 01:03:20;;;;;;;;;8.00;4.50;;;;;6.67;55.78;101936.47;5102442;27;45816;-80
2022/02/27 01:05:45;;;;;;;;;6.50;6.50;;;;;6.63;55.83;101934.88;5113782;27;45523;-82
2022/02/27 01:08:11;;;;;;;;;7.00;5.50;;;;;6.66;56.21;101932.16;5091649;27;47006;-80
2022/02/27 01:10:36;;;;;;;;;8.00;6.50;;;;;6.66;56.22;101932.16;5096800;27;45615;-80
2022/02/27 01:13:01;;;;;;;;;5.75;5.75;;;;;6.65;56.31;101930.44;5100602;27;45818;-81
2022/02/27 01:15:28;;;;;;;;;7.50;7.50;;;;;6.65;56.59;101933.03;5090810;27;48960;-80
2022/02/27 01:21:15;;;;;;;;;8.00;5.75;;;;;6.60;56.02;101914.13;5095834;27;45482;-82
2022/02/27 01:23:45;;;;;;;;;7.50;6.00;;;;;6.57;56.04;101911.63;5096151;27;45458;-86
2022/02/27 01:26:11;;;;;;;;;5.25;5.25;;;;;6.63;56.05;101919.25;5096852;27;46497;-80
2022/02/27 01:28:37;;;;;;;;;6.50;5.25;;;;;6.58;56.43;101895.13;5097420;27;47451;-80
2022/02/27 01:31:03;;;;;;;;;5.50;5.00;;;;;6.58;56.16;101900.31;5098113;27;45564;-83
2022/02/27 01:33:29;;;;;;;;;4.00;3.00;;;;;6.56;56.24;101896.06;5097528;27;45744;-85
2022/02/27 01:35:54;;;;;;;;;5.50;5.00;;;;;6.59;56.20;101909.81;5097298;27;46361;-87
2022/02/27 01:38:19;;;;;;;;;7.50;5.75;;;;;6.56;56.54;101906.47;5096637;27;46193;-83
2022/02/27 01:40:45;;;;;;;;;4.75;4.25;;;;;6.57;56.21;101913.38;5097294;27;45621;-80
2022/02/27 01:43:10;;;;;;;;;6.00;5.00;;;;;6.54;56.25;101901.31;5098725;27;45885;-82
2022/02/27 01:45:36;;;;;;;;;5.50;5.25;;;;;6.55;56.37;101905.63;5099296;27;46264;-79
2022/02/27 01:51:23;;;;;;;;;5.75;5.75;;;;;6.48;56.22;101885.88;5100542;27;45583;-85
2022/02/27 01:53:49;;;;;;;;;6.50;5.50;;;;;6.46;56.28;101886.84;5099109;27;45719;-83
2022/02/27 01:56:17;;;;;;;;;3.75;3.50;;;;;6.51;56.45;101898.81;5081182;27;46910;-84
2022/02/27 01:58:42;;;;;;;;;6.50;5.50;;;;;6.50;56.49;101901.47;5101317;27;47164;-84
2022/02/27 02:01:08;;;;;;;;;7.00;5.50;;;;;6.44;55.98;101891.25;5103406;27;45599;-86
2022/02/27 02:06:55;;;;;;;;;5.25;4.75;;;;;6.42;56.57;101899.13;5101988;27;45497;-84
2022/02/27 02:09:20;;;;;;;;;6.00;5.75;;;;;6.44;56.33;101902.53;5104343;27;45446;-82
2022/02/27 02:11:45;;;;;;;;;6.00;4.25;;;;;6.35;56.47;101889.81;5104722;27;45399;-82
2022/02/27 02:14:13;;;;;;;;;4.00;4.00;;;;;6.42;56.51;101906.94;5087305;27;45907;-84
2022/02/27 02:16:44;;;;;;;;;8.00;5.00;;;;;6.42;56.11;101906.09;5069374;27;46713;-84
2022/02/27 02:19:10;;;;;;;;;5.00;4.25;;;;;6.40;56.60;101893.13;5105472;27;46042;-80
2022/02/27 02:21:40;;;;;;;;;6.00;5.75;;;;;6.36;56.36;101888.06;5086199;27;45984;-84
2022/02/27 02:24:06;;;;;;;;;5.75;4.50;;;;;6.32;56.33;101874.28;5106945;27;45651;-84
2022/02/27 02:26:35;;;;;;;;;7.50;5.00;;;;;6.12;56.44;101845.47;5103569;27;45687;-84
2022/02/27 02:29:01;;;;;;;;;9.50;6.00;;;;;6.33;56.36;101883.81;5099767;27;47465;-79
2022/02/27 02:31:26;;;;;;;;;8.00;8.00;;;;;6.28;56.26;101870.94;5103948;27;45430;-85
2022/02/27 02:37:13;;;;;;;;;6.00;4.00;;;;;6.24;56.19;101876.31;5104543;27;46057;-78
2022/02/27 02:39:40;;;;;;;;;8.00;5.50;;;;;6.21;56.38;101874.63;5107506;27;45547;-79
2022/02/27 02:42:06;;;;;;;;;5.25;4.00;;;;;6.19;56.42;101879.06;5109870;27;45499;-79
2022/02/27 02:44:31;;;;;;;;;10.00;6.00;;;;;6.08;56.59;101857.75;5118058;27;45431;-81
2022/02/27 02:46:57;;;;;;;;;9.00;5.00;;;;;5.89;56.53;101825.41;5098434;27;46345;-77
2022/02/27 02:49:23;;;;;;;;;6.00;5.00;;;;;6.15;56.76;101869.66;5114651;27;46599;-78
2022/02/27 02:51:48;;;;;;;;;6.00;4.00;;;;;6.09;56.50;101863.81;5113503;27;45528;-78
2022/02/27 02:54:13;;;;;;;;;5.75;4.75;;;;;6.07;56.18;101869.03;5112945;27;45811;-80
2022/02/27 02:56:40;;;;;;;;;7.00;5.25;;;;;6.09;56.26;101879.41;5112960;27;45526;-79
2022/02/27 02:59:07;;;;;;;;;4.00;4.00;;;;;6.05;56.76;101872.59;5116922;27;45616;-80
2022/02/27 03:01:32;;;;;;;;;1.75;1.75;;;;;5.98;56.34;101874.56;5112911;27;45486;-79
2022/02/27 03:07:19;;;;;;;;;3.50;3.00;;;;;5.97;56.55;101875.44;5108872;27;45585;-77
2022/02/27 03:09:45;;;;;;;;;4.00;3.50;;;;;5.90;56.59;101866.13;5116993;27;45261;-79
2022/02/27 03:12:10;;;;;;;;;5.50;4.00;;;;;5.66;56.58;101820.94;5103331;27;45164;-76
2022/02/27 03:14:35;;;;;;;;;6.25;5.00;;;;;5.89;56.53;101861.81;5121843;27;44987;-81
2022/02/27 03:17:02;;;;;;;;;4.50;4.25;;;;;5.61;56.55;101828.03;5120051;27;46174;-80
2022/02/27 03:22:50;;;;;;;;;7.00;5.25;;;;;5.82;56.74;101862.91;5112852;27;45571;-83
2022/02/27 03:25:16;;;;;;;;;4.00;4.00;;;;;5.74;56.83;101854.47;5113343;27;45574;-79
2022/02/27 03:27:41;;;;;;;;;5.00;4.00;;;;;5.80;56.92;101865.53;5114157;27;46715;-84
2022/02/27 03:30:07;;;;;;;;;6.00;3.50;;;;;5.72;56.97;101844.09;5112337;27;45449;-84
2022/02/27 03:32:32;;;;;;;;;3.25;3.00;;;;;5.73;56.53;101858.81;5091338;27;45514;-82
2022/02/27 03:34:58;;;;;;;;;2.50;2.50;;;;;5.78;56.74;101851.72;5110911;27;45433;-82
2022/02/27 03:37:23;;;;;;;;;8.00;4.00;;;;;5.73;56.86;101851.00;5110147;27;46564;-84
2022/02/27 03:39:49;;;;;;;;;5.50;4.75;;;;;5.75;56.57;101854.44;5107904;27;45489;-84
2022/02/27 03:42:14;;;;;;;;;4.00;4.00;;;;;5.71;56.68;101849.38;5103830;27;45495;-82
2022/02/27 03:44:39;;;;;;;;;5.75;3.00;;;;;5.71;57.07;101858.03;5103429;27;45476;-82
2022/02/27 03:47:05;;;;;;;;;6.00;5.00;;;;;5.69;57.11;101859.81;5102810;27;47462;-86
2022/02/27 03:52:53;;;;;;;;;4.75;4.00;;;;;5.64;56.86;101871.25;5099432;27;45737;-84
2022/02/27 03:55:19;;;;;;;;;4.75;3.00;;;;;5.54;57.17;101862.88;5100147;27;45497;-85
2022/02/27 03:57:45;;;;;;;;;7.00;4.00;;;;;5.60;56.73;101875.69;5100065;27;46372;-87
2022/02/27 04:00:13;;;;;;;;;3.50;2.00;;;;;5.44;56.95;101851.94;5102035;27;46100;-87
2022/02/27 04:02:40;;;;;;;;;2.50;2.50;;;;;5.47;57.38;101858.75;5103317;27;45654;-87
2022/02/27 04:08:27;;;;;;;;;5.00;5.00;;;;;5.49;57.23;101867.38;5103518;27;46142;-86
2022/02/27 04:10:53;;;;;;;;;4.50;3.00;;;;;5.48;56.82;101868.25;5103625;27;46228;-81
2022/02/27 04:13:19;;;;;;;;;3.00;3.00;;;;;5.41;57.13;101853.75;5103417;27;45618;-81
2022/02/27 04:15:44;;;;;;;;;5.75;4.00;;;;;5.43;57.24;101863.22;5103404;27;45571;-83
2022/02/27 04:18:10;;;;;;;;;4.25;4.00;;;;;5.51;57.35;101870.75;5102226;27;45683;-83
2022/02/27 04:20:35;;;;;;;;;5.00;4.00;;;;;5.51;57.33;101869.94;5098962;27;45587;-81
2022/02/27 04:23:01;;;;;;;;;4.25;3.50;;;;;5.51;56.93;101877.72;5098638;27;45643;-83
2022/02/27 04:25:26;;;;;;;;;5.75;4.25;;;;;5.48;57.46;101868.25;5102281;27;45740;-86
2022/02/27 04:27:53;;;;;;;;;3.50;2.00;;;;;5.47;57.37;101872.59;5105795;27;46195;-85
2022/02/27 04:30:18;;;;;;;;;4.00;2.00;;;;;5.41;57.28;101857.19;5105721;27;45486;-83
2022/02/27 04:32:44;;;;;;;;;3.50;2.00;;;;;5.44;57.45;101874.47;5087748;27;45611;-85
2022/02/27 04:38:31;;;;;;;;;4.75;2.00;;;;;5.23;57.55;101836.13;5102087;27;45608;-85
2022/02/27 04:40:56;;;;;;;;;4.00;3.00;;;;;5.26;57.24;101842.06;5102836;27;46282;-84
2022/02/27 04:43:22;;;;;;;;;3.00;2.00;;;;;5.17;57.62;101828.50;5085314;27;46021;-83
2022/02/27 04:45:47;;;;;;;;;4.00;3.00;;;;;5.30;57.37;101854.06;5105123;27;45692;-81
2022/02/27 04:48:13;;;;;;;;;5.00;4.00;;;;;5.33;57.43;101861.78;5102799;27;46287;-84
2022/02/27 04:54:00;;;;;;;;;5.50;4.00;;;;;5.28;57.40;101853.28;5099861;27;45879;-81
2022/02/27 04:56:25;;;;;;;;;5.00;4.25;;;;;5.15;57.25;101836.31;5100908;27;45568;-85
2022/02/27 04:58:50;;;;;;;;;6.50;4.00;;;;;5.25;57.18;101858.53;5084136;27;47200;-84
2022/02/27 05:01:16;;;;;;;;;7.50;4.75;;;;;5.19;57.74;101850.06;5103088;27;45633;-76
2022/02/27 05:03:41;;;;;;;;;5.50;4.00;;;;;5.14;57.46;101846.75;5096058;27;45563;-78
2022/02/27 05:06:07;;;;;;;;;4.75;2.50;;;;;5.13;57.66;101845.06;5095978;27;45600;-79
2022/02/27 05:08:32;;;;;;;;;6.25;4.00;;;;;5.23;57.77;101856.91;5098224;27;45582;-78
2022/02/27 05:10:57;;;;;;;;;4.25;4.00;;;;;5.17;57.84;101857.06;5101613;27;45718;-78
2022/02/27 05:13:23;;;;;;;;;2.00;2.00;;;;;5.19;57.78;101858.72;5088929;27;45684;-78
2022/02/27 05:15:49;;;;;;;;;6.00;4.75;;;;;5.18;57.50;101864.81;5109693;27;45623;-78
2022/02/27 05:18:15;;;;;;;;;4.00;4.00;;;;;5.13;57.46;101864.06;5116555;27;46436;-80
2022/02/27 05:24:02;;;;;;;;;4.25;3.50;;;;;4.87;57.67;101818.06;5119222;27;45201;-82
2022/02/27 05:26:28;;;;;;;;;4.00;4.00;;;;;5.10;57.33;101858.97;5121086;27;45263;-82
2022/02/27 05:28:54;;;;;;;;;2.00;2.00;;;;;5.12;57.59;101857.22;5121797;27;46397;-83
2022/02/27 05:31:19;;;;;;;;;4.25;2.00;;;;;5.12;57.86;101859.81;5103570;27;47262;-81
2022/02/27 05:33:45;;;;;;;;;3.50;2.00;;;;;5.11;57.75;101858.09;5123761;27;45395;-85
2022/02/27 05:39:32;;;;;;;;;2.00;2.00;;;;;4.93;57.77;101827.44;5122719;27;45469;-78
2022/02/27 05:41:58;;;;;;;;;4.00;2.00;;;;;4.80;57.27;101805.34;5118494;27;45567;-85
2022/02/27 05:44:23;;;;;;;;;4.00;2.00;;;;;4.99;57.64;101838.50;5108572;27;45572;-86
2022/02/27 05:46:51;;;;;;;;;2.00;2.00;;;;;5.05;57.44;101853.91;5108712;27;45464;-84
2022/02/27 05:49:17;;;;;;;;;4.25;4.00;;;;;5.04;57.27;101843.56;5103603;27;45498;-86
2022/02/27 05:51:46;;;;;;;;;3.00;3.00;;;;;5.00;57.41;101837.63;5083476;27;47307;-82
2022/02/27 05:54:12;;;;;;;;;4.00;2.00;;;;;4.98;57.58;101842.00;5105894;27;45703;-84
2022/02/27 05:56:38;;;;;;;;;5.00;2.00;;;;;4.95;57.54;101852.47;5108055;27;45553;-81
2022/02/27 05:59:03;;;;;;;;;8.50;4.00;;;;;4.94;57.39;101847.31;5110113;27;46403;-82
2022/02/27 06:01:28;;;;;;;;;3.00;2.00;;;;;4.87;58.08;101844.03;5090443;27;45710;-83
2022/02/27 06:03:54;;;;;;;;;4.00;4.00;;;;;4.89;57.49;101844.84;5107806;27;45554;-84
2022/02/27 06:09:41;;;;;;;;;3.50;3.50;;;;;4.83;57.77;101839.84;5113186;27;45631;-87
2022/02/27 06:12:07;;;;;;;;;4.25;4.00;;;;;4.83;58.12;101849.38;5105874;27;45724;-88
2022/02/27 06:14:32;;;;;;;;;4.00;3.00;;;;;4.75;57.77;101831.38;5102058;27;45613;-83
2022/02/27 06:16:57;;;;;;;;;7.00;6.50;;;;;4.79;58.00;101848.59;5105149;27;45535;-84
2022/02/27 06:19:23;;;;;;;;;4.25;3.75;;;;;4.78;58.15;101846.03;5104428;27;47019;-85
2022/02/27 06:25:12;;;;;;;;;4.00;3.50;;;;;4.70;58.11;101835.84;5103656;27;45976;-85
2022/02/27 06:27:42;;;;;;;;;5.00;4.25;;;;;4.75;58.13;101848.75;5105812;27;45602;-88
2022/02/27 06:30:13;;;;;;;;;5.00;4.50;;;;;4.68;58.22;101842.84;5083386;27;47492;-87
2022/02/27 06:32:39;;;;;;;;;4.25;4.25;;;;;4.72;58.08;101846.22;5101794;27;46147;-88
2022/02/27 06:35:06;;;;;;;;;6.25;4.75;;;;;4.73;58.21;101853.09;5101480;27;45868;-87
2022/02/27 06:37:32;;;;;;;;;4.00;2.00;;;;;4.71;58.14;101841.91;5102486;27;45687;-84
2022/02/27 06:39:57;;;;;;;;;2.00;2.00;;;;;4.65;58.42;101848.09;5099985;27;46652;-84
2022/02/27 06:42:23;;;;;;;;;6.50;2.00;;;;;4.70;57.93;101850.59;5099597;27;46011;-87
2022/02/27 06:44:48;;;;;;;;;3.00;2.00;;;;;4.71;58.07;101857.47;5098772;27;45728;-86
2022/02/27 06:47:14;;;;;;;;;3.50;2.00;;;;;4.70;58.02;101851.44;5099330;27;45748;-84
2022/02/27 06:49:39;;;;;;;;;4.75;4.00;;;;;4.69;58.14;101849.75;5099246;27;45554;-83
2022/02/27 06:55:26;;;;;;;;;4.00;2.00;;;;;4.71;57.85;101844.50;5100809;27;45535;-81
2022/02/27 06:57:52;;;;;;;;;3.50;1.75;;;;;4.52;58.22;101816.47;5100842;27;45943;-81
2022/02/27 07:00:19;;;;;;;;;2.00;2.00;;;;;4.65;58.13;101840.31;5100132;27;46896;-81
2022/02/27 07:02:45;;;;;;;;;4.25;3.50;;;;;4.69;58.05;101846.31;5099118;27;46166;-85
2022/02/27 07:05:11;;;;;;;;;3.50;2.00;;;;;4.74;58.05;101839.25;5081619;27;45689;-84
2022/02/27 07:07:36;;;;;;;;;3.00;2.00;;;;;4.75;58.15;101843.53;5105707;27;45576;-83
2022/02/27 07:10:06;;;;;;;;;2.50;2.50;;;;;4.74;57.77;101840.09;5106254;27;45615;-86
2022/02/27 07:12:35;;;;;;;;;4.50;4.00;;;;;4.78;57.88;101849.50;5104105;27;47124;-85
2022/02/27 07:15:03;;;;;;;;;4.75;4.00;;;;;4.56;57.98;101812.88;5103272;27;45875;-78
2022/02/27 07:17:29;;;;;;;;;2.50;2.00;;;;;4.79;57.73;101848.59;5096478;27;46008;-84
2022/02/27 07:19:55;;;;;;;;;4.00;3.00;;;;;4.81;57.81;101851.13;5097837;27;46401;-79
2022/02/27 07:25:42;;;;;;;;;2.00;2.00;;;;;4.79;57.72;101847.75;5098045;27;45502;-80
2022/02/27 07:28:08;;;;;;;;;7.50;4.25;;;;;4.75;57.83;101839.19;5097561;27;45625;-81
2022/02/27 07:30:33;;;;;;;;;4.00;3.00;;;;;4.85;57.47;101845.84;5097471;27;46691;-82
2022/02/27 07:32:59;;;;;;;;;7.00;2.00;;;;;4.75;57.86;101826.19;5097467;27;46175;-80
2022/02/27 07:35:24;;;;;;;;;2.50;2.00;;;;;4.78;58.14;101835.66;5097746;27;45593;-83
2022/02/27 07:37:50;;;;;;;;;4.00;4.00;;;;;4.87;57.50;101844.03;5098063;27;45530;-82
2022/02/27 07:40:15;;;;;;;;;4.50;4.00;;;;;4.88;57.12;101850.09;5097809;27;45591;-81
2022/02/27 07:42:41;;;;;;;;;6.25;4.75;;;;;4.88;57.38;101853.53;5097587;27;45696;-79
2022/02/27 07:45:07;;;;;;;;;4.50;2.00;;;;;4.79;57.23;101833.03;5098446;27;45557;-84
2022/02/27 07:47:32;;;;;;;;;4.75;3.50;;;;;4.80;57.46;101829.56;5098639;27;45403;-81
2022/02/27 07:49:57;;;;;;;;;2.00;2.00;;;;;4.91;57.09;101848.25;5098839;27;45615;-83
2022/02/27 07:55:44;;;;;;;;;3.50;2.00;;;;;4.67;57.21;101809.16;5098694;27;45919;-82
2022/02/27 07:58:13;;;;;;;;;3.00;2.00;;;;;4.97;56.95;101861.06;5099861;27;45699;-83
2022/02/27 08:00:39;;;;;;;;;2.00;1.00;;;;;4.87;56.93;101843.19;5102273;27;46356;-84
2022/02/27 08:03:07;;;;;;;;;4.50;4.00;;;;;4.93;56.97;101843.03;5101745;27;46701;-85
2022/02/27 08:05:33;;;;;;;;;1.75;1.25;;;;;4.91;57.22;101835.25;5099815;27;45698;-85
2022/02/27 08:11:20;;;;;;;;;4.00;2.00;;;;;5.10;57.11;101865.91;5101665;27;45616;-85
2022/02/27 08:13:45;;;;;;;;;3.50;3.50;;;;;5.10;56.82;101861.59;5102743;27;46976;-84
2022/02/27 08:16:12;;;;;;;;;6.00;4.25;;;;;5.10;56.18;101858.13;5083165;27;45652;-84
2022/02/27 08:18:38;;;;;;;;;2.00;2.00;;;;;5.16;56.67;101868.34;5084664;27;45661;-84
2022/02/27 08:21:06;;;;;;;;;1.50;1.50;;;;;5.19;56.49;101865.66;5099276;27;47599;-83
2022/02/27 08:23:32;;;;;;;;;4.00;2.00;;;;;5.17;56.53;101857.94;5080112;27;47451;-87
2022/02/27 08:26:00;;;;;;;;;4.50;1.75;;;;;5.20;56.63;101860.41;5096707;27;45699;-79
2022/02/27 08:28:28;;;;;;;;;3.00;3.00;;;;;5.27;56.18;101868.91;5096194;27;45808;-81
2022/02/27 08:30:54;;;;;;;;;6.50;2.00;;;;;5.14;56.43;101838.97;5095892;27;45551;-79
2022/02/27 08:33:19;;;;;;;;;4.00;4.00;;;;;5.24;56.56;101862.03;5095758;27;45549;-80
2022/02/27 08:35:45;;;;;;;;;3.50;2.00;;;;;5.40;56.30;101867.63;5096064;27;45590;-81
2022/02/27 08:41:32;;;;;;;;;4.25;3.00;;;;;5.47;55.80;101858.75;5099111;27;45962;-81
2022/02/27 08:43:58;;;;;;;;;4.75;4.25;;;;;5.52;55.94;101856.03;5099981;27;45756;-78
2022/02/27 08:46:23;;;;;;;;;7.50;6.75;;;;;5.64;55.63;101869.50;5095970;27;45634;-77
2022/02/27 08:48:49;;;;;;;;;4.50;4.00;;;;;5.69;55.08;101883.22;5095561;27;45506;-78
2022/02/27 08:51:15;;;;;;;;;4.00;4.00;;;;;5.68;55.35;101867.66;5094424;27;46570;-79
2022/02/27 08:53:41;;;;;;;;;6.00;2.00;;;;;5.74;54.80;101867.47;5094873;27;46247;-78
2022/02/27 08:56:06;;;;;;;;;2.50;2.50;;;;;5.73;55.01;101860.56;5095038;27;45446;-79
2022/02/27 08:58:32;;;;;;;;;2.00;2.00;;;;;5.80;54.68;101872.47;5095050;27;45536;-83
2022/02/27 09:00:57;;;;;;;;;5.00;4.00;;;;;5.52;54.64;101817.03;5095186;27;46595;-82
2022/02/27 09:03:26;;;;;;;;;4.50;4.00;;;;;5.80;54.59;101868.13;5095004;27;45703;-81
2022/02/27 09:05:52;;;;;;;;;3.00;2.00;;;;;5.68;54.37;101839.91;5094705;27;45870;-79
2022/02/27 09:11:39;;;;;;;;;2.00;2.00;;;;;5.92;54.06;101887.75;5094947;27;45654;-80
2022/02/27 09:14:05;;;;;;;;;4.25;4.00;;;;;5.83;53.98;101882.81;5095982;27;45711;-81
2022/02/27 09:16:30;;;;;;;;;5.00;4.00;;;;;5.98;53.99;101895.34;5095376;27;45583;-80
2022/02/27 09:18:55;;;;;;;;;5.00;4.00;;;;;6.02;53.85;101896.09;5095282;27;45566;-81
2022/02/27 09:21:21;;;;;;;;;4.75;3.00;;;;;5.93;54.38;101871.25;5095256;27;45503;-79
2022/02/27 09:27:08;;;;;;;;;2.00;2.00;;;;;6.16;53.86;101886.09;5095376;27;45861;-80
2022/02/27 09:29:34;;;;;;;;;5.75;4.00;;;;;6.19;53.80;101884.28;5096605;27;45731;-80
2022/02/27 09:31:59;;;;;;;;;5.00;4.00;;;;;6.24;54.11;101886.72;5100771;27;45975;-80
2022/02/27 09:34:25;;;;;;;;;3.50;3.50;;;;;6.29;53.83;101887.41;5095342;27;45607;-85
2022/02/27 09:36:50;;;;;;;;;4.00;4.00;;;;;6.36;53.81;101888.94;5096249;27;45665;-81
2022/02/27 09:39:16;;;;;;;;;5.25;4.00;;;;;6.23;53.50;101851.19;5096648;27;45629;-82
2022/02/27 09:41:42;;;;;;;;;2.50;1.00;;;;;6.45;53.28;101877.34;5095397;27;45622;-76
2022/02/27 09:44:09;;;;;;;;;3.00;2.00;;;;;6.46;53.28;101871.25;5096608;27;45556;-75
2022/02/27 09:46:36;;;;;;;;;4.75;3.50;;;;;6.57;53.09;101889.94;5095705;27;45861;-79
2022/02/27 09:49:03;;;;;;;;;5.25;4.00;;;;;6.45;52.88;101852.16;5097511;27;45741;-80
2022/02/27 09:51:31;;;;;;;;;4.00;4.00;;;;;6.68;52.63;101886.09;5094759;27;46600;-77
2022/02/27 09:57:21;;;;;;;;;1.00;1.00;;;;;6.78;52.86;101884.00;5093443;27;45579;-80
2022/02/27 09:59:47;;;;;;;;;2.00;2.00;;;;;6.86;53.07;101875.91;5096294;27;45717;-79
2022/02/27 10:02:13;;;;;;;;;4.25;4.00;;;;;6.91;52.69;101876.63;5095188;27;45546;-78
2022/02/27 10:04:40;;;;;;;;;6.00;4.50;;;;;6.95;51.99;101871.25;5095579;27;46033;-78
2022/02/27 10:07:12;;;;;;;;;5.00;5.00;;;;;7.01;51.71;101875.38;5096326;27;45605;-79
2022/02/27 10:09:39;;;;;;;;;4.50;4.50;;;;;7.03;51.83;101874.41;5096420;27;45733;-82
2022/02/27 10:12:36;;;;;;;;;4.00;2.00;;;;;7.07;51.21;101870.78;5096871;27;45616;-83
2022/02/27 10:15:08;;;;;;;;;2.00;2.00;;;;;7.06;51.38;101863.03;5013121;28;46176;-81
2022/02/27 10:17:36;;;;;;;;;2.00;2.00;;;;;7.14;51.38;101887.06;5016778;28;45997;-78
2022/02/27 10:20:11;;;;;;;;;6.00;5.00;;;;;7.17;51.14;101886.97;5017737;28;45746;-77
2022/02/27 10:22:39;;;;;;;;;4.00;4.00;;;;;7.20;50.90;101884.22;5016608;28;46706;-80
2022/02/27 10:25:11;;;;;;;;;5.00;5.00;;;;;7.23;50.88;101881.53;5018605;28;46422;-82
2022/02/27 10:27:39;;;;;;;;;4.50;3.75;;;;;7.27;50.89;101880.50;5018192;28;45502;-77
2022/02/27 10:30:15;;;;;;;;;4.50;4.25;;;;;7.29;51.01;101873.44;5022171;28;45846;-78
2022/02/27 10:32:51;;;;;;;;;2.25;2.00;;;;;7.32;50.69;101881.16;5021430;28;45604;-79
2022/02/27 10:35:38;;;;;;;;;4.00;3.50;;;;;7.38;51.02;101888.78;5019182;28;46383;-77
2022/02/27 10:38:10;;;;;;;;;2.25;2.25;;;;;7.42;51.13;101887.75;5026043;28;45947;-82
2022/02/27 10:40:38;;;;;;;;;4.50;4.00;;;;;7.45;50.54;101892.00;5015774;28;45801;-79
2022/02/27 10:43:11;;;;;;;;;5.25;5.00;;;;;7.47;50.74;101890.16;5015681;28;46792;-85
2022/02/27 10:45:38;;;;;;;;;5.25;4.25;;;;;7.51;50.55;101876.97;5015650;28;45788;-83
2022/02/27 10:48:15;;;;;;;;;13.25;5.25;;;;;7.56;51.04;101882.84;4998866;28;45695;-81
2022/02/27 10:50:43;;;;;;;;;4.75;4.75;;;;;7.63;51.29;101886.06;5059151;27;45887;-84
2022/02/27 10:53:08;;;;;;;;;8.00;6.00;;;;;7.56;51.00;101846.34;5098779;27;46835;-84
2022/02/27 10:55:35;;;;;;;;;3.50;3.25;;;;;7.75;51.02;101867.34;5100580;27;45508;-85
2022/02/27 10:58:06;;;;;;;;;4.00;4.00;;;;;7.80;50.64;101865.41;5082311;27;45687;-85
2022/02/27 11:00:34;;;;;;;;;5.00;5.00;;;;;7.26;49.94;101778.91;5100159;27;45493;-86
2022/02/27 11:03:04;;;;;;;;;5.50;5.00;;;;;7.90;50.34;101868.50;5082369;27;47164;-84
2022/02/27 11:05:35;;;;;;;;;6.25;5.25;;;;;7.79;50.58;101853.25;5083141;27;47015;-85
2022/02/27 11:08:04;;;;;;;;;7.00;5.25;;;;;7.87;50.53;101855.59;5082525;27;45778;-87
2022/02/27 11:10:34;;;;;;;;;4.25;4.00;;;;;8.05;50.32;101874.84;5102077;27;45549;-83
2022/02/27 11:13:03;;;;;;;;;3.50;3.50;;;;;7.96;49.98;101852.59;5080913;27;47451;-85
2022/02/27 11:15:29;;;;;;;;;5.50;4.50;;;;;8.14;49.86;101877.13;5100918;27;46203;-83
2022/02/27 11:17:55;;;;;;;;;5.00;3.00;;;;;8.07;50.16;101860.84;5096840;27;45900;-84
2022/02/27 11:20:23;;;;;;;;;6.75;5.25;;;;;8.13;50.22;101865.81;5081410;27;45637;-82
2022/02/27 11:22:52;;;;;;;;;5.00;3.50;;;;;7.66;50.05;101775.59;5100675;27;46902;-82
2022/02/27 11:25:19;;;;;;;;;7.50;6.00;;;;;8.36;49.75;101876.22;5097641;27;45687;-83
2022/02/27 11:28:12;;;;;;;;;5.50;5.00;;;;;8.31;49.55;101870.31;5095759;27;45904;-82
2022/02/27 11:30:40;;;;;;;;;5.50;5.00;;;;;8.46;49.61;101876.66;5096295;27;45529;-82
2022/02/27 11:33:26;;;;;;;;;6.00;5.00;;;;;8.54;48.81;101871.97;5098790;27;45617;-81
2022/02/27 11:35:55;;;;;;;;;7.50;6.00;;;;;8.61;49.45;101883.00;5097469;27;46197;-84
2022/02/27 11:38:30;;;;;;;;;6.25;6.00;;;;;8.66;49.23;101860.13;5101846;27;45680;-83
2022/02/27 11:41:18;;;;;;;;;5.00;5.00;;;;;8.72;49.10;101855.50;5101118;27;45626;-83
2022/02/27 11:43:50;;;;;;;;;6.25;6.00;;;;;8.67;49.22;101833.97;5096717;27;45651;-84
2022/02/27 11:46:29;;;;;;;;;5.00;4.50;;;;;8.83;49.03;101847.19;5097020;27;46465;-84
2022/02/27 11:48:58;;;;;;;;;7.00;6.00;;;;;8.79;48.81;101833.44;5083332;27;45931;-81
2022/02/27 11:51:35;;;;;;;;;5.50;3.50;;;;;8.93;49.10;101843.25;5082822;27;45632;-84
2022/02/27 11:54:10;;;;;;;;;8.00;8.00;;;;;8.98;48.85;101841.28;5099995;27;46643;-82
2022/02/27 11:56:38;;;;;;;;;5.00;5.00;;;;;8.72;48.84;101787.59;5095973;27;48219;-86
2022/02/27 11:59:04;;;;;;;;;9.00;7.00;;;;;9.07;48.39;101840.88;5096419;27;45744;-82
2022/02/27 12:01:57;;;;;;;;;6.75;4.50;;;;;9.12;48.34;101833.66;5097287;27;45698;-83
2022/02/27 12:04:25;;;;;;;;;9.50;7.00;;;;;8.89;48.14;101783.38;5088507;27;48607;-88
2022/02/27 12:07:05;;;;;;;;;6.75;4.50;;;;;9.16;48.18;101810.88;5100228;27;45602;-84
2022/02/27 12:10:02;;;;;;;;;7.50;6.00;;;;;9.27;48.09;101826.91;5094689;27;45817;-78
2022/02/27 12:12:52;;;;;;;;;7.00;6.00;;;;;9.32;48.12;101819.69;5093688;27;45665;-77
2022/02/27 12:15:29;;;;;;;;;5.75;5.00;;;;;9.36;47.89;101812.53;5094852;27;45919;-76
2022/02/27 12:18:05;;;;;;;;;7.00;5.25;;;;;9.23;47.71;101786.97;5095500;27;45694;-75
2022/02/27 12:20:38;;;;;;;;;7.00;6.50;;;;;9.42;47.80;101809.66;5096018;27;45614;-75
2022/02/27 12:23:05;;;;;;;;;6.50;6.25;;;;;9.44;47.46;101811.28;5096192;27;45731;-75
2022/02/27 12:25:34;;;;;;;;;10.00;7.75;;;;;9.45;47.39;101812.97;5095990;27;46628;-77
2022/02/27 12:28:00;;;;;;;;;12.25;9.75;;;;;9.47;47.54;101813.75;5096401;27;46195;-76
2022/02/27 12:30:27;;;;;;;;;6.00;6.00;;;;;9.41;47.56;101803.56;5077601;27;45662;-76
2022/02/27 12:33:01;;;;;;;;;6.25;5.25;;;;;9.51;47.59;101823.13;5095799;27;45687;-78
2022/02/27 12:35:27;;;;;;;;;8.25;6.00;;;;;9.53;47.67;101821.31;5095400;27;47411;-78
2022/02/27 12:37:53;;;;;;;;;6.75;6.00;;;;;9.51;47.75;101814.44;5096035;27;46158;-84
2022/02/27 12:40:19;;;;;;;;;6.75;6.00;;;;;9.58;47.70;101810.63;5095348;27;45668;-79
2022/02/27 12:42:44;;;;;;;;;5.25;5.00;;;;;9.61;47.99;101820.91;5094293;27;45518;-76
2022/02/27 12:45:10;;;;;;;;;7.50;7.00;;;;;9.58;47.28;101808.00;5095543;27;45628;-78
2022/02/27 12:47:35;;;;;;;;;8.50;7.25;;;;;9.64;47.26;101807.72;5077042;27;46033;-79
2022/02/27 12:50:21;;;;;;;;;7.25;6.50;;;;;9.65;47.39;101819.88;5095923;27;45800;-81
2022/02/27 12:52:47;;;;;;;;;7.00;7.00;;;;;9.67;47.18;101818.03;5095424;27;45585;-80
2022/02/27 12:55:19;;;;;;;;;10.25;6.75;;;;;9.71;47.11;101816.13;5077211;27;47397;-84
2022/02/27 12:57:48;;;;;;;;;6.50;6.50;;;;;9.69;47.03;101809.19;5093850;27;46663;-79